»·PEaware :: N196EC KAVX-KSAN

N196EC :: KAVX-KSAN

FLIGHT INFORMATION

Flight Status: Arrived
Operator: Privately registered:
United States
More flights under this callsign
Pilot: Adrián R. (20842)
Aircraft: BEECH AIRCRAFT DEBONAIR BONANZA
(BE33)
More flights by this aircraft type
Origin: KAVX Catalina
United States
Destination: KSAN San Diego Intl-Lindbergh
United States
More flights between these airports :: More routes between these airports
Route: SXC V208 OCN V23 MZB
File this flight plan on PilotEdge
Remarks: I8
Altitude:
(Current/Filed)
5,000ft
Speed:
(Current/Filed)
160kts
Departed: 08-Nov-18 08:35 AM
Arrived: 08-Nov-18 09:24 AM
Distance/Time
Traveled:
74nm/0:49
Distance/Time
To Go:
Arrived

Flight Plot

Page will automatically refresh every two minutes.


Map Options




Map Legend


Flown Route
Filed Route
Departure Airport
Arrival Airport
Navaid (VOR, NDB)
Fix

Horizontal Profiles

Position Reports

Time Latitude Longitude Heading Altitude Ground
Speed
08-Nov-18 08:14 33.403112 -118.415850 33 1569ft 0kts
08-Nov-18 08:15 33.403112 -118.415850 33 1569ft 0kts
08-Nov-18 08:16 33.403112 -118.415850 33 1569ft 0kts
08-Nov-18 08:17 33.403112 -118.415850 33 1569ft 0kts
08-Nov-18 08:18 33.403112 -118.415850 33 1569ft 0kts
08-Nov-18 08:19 33.403112 -118.415850 33 1569ft 0kts
08-Nov-18 08:20 33.403112 -118.415850 33 1569ft 0kts
08-Nov-18 08:21 33.403112 -118.415850 33 1569ft 0kts
08-Nov-18 08:22 33.403112 -118.415850 33 1569ft 0kts
08-Nov-18 08:23 33.403112 -118.415850 33 1569ft 0kts
08-Nov-18 08:24 33.403112 -118.415850 33 1569ft 0kts
08-Nov-18 08:25 33.403112 -118.415850 33 1569ft 0kts
08-Nov-18 08:26 33.403112 -118.415850 33 1569ft 0kts
08-Nov-18 08:27 33.403112 -118.415850 33 1569ft 0kts
08-Nov-18 08:28 33.403112 -118.415850 33 1569ft 0kts
08-Nov-18 08:29 33.403112 -118.415850 33 1569ft 0kts
08-Nov-18 08:30 33.403112 -118.415850 33 1569ft 0kts
08-Nov-18 08:31 33.403112 -118.415850 33 1569ft 0kts
08-Nov-18 08:32 33.403112 -118.415850 33 1569ft 0kts
08-Nov-18 08:33 33.403112 -118.415850 33 1569ft 0kts
08-Nov-18 08:34 33.403112 -118.415850 33 1569ft 0kts
08-Nov-18 08:35 33.404511 -118.415067 346 1569ft 9kts
08-Nov-18 08:36 33.407070 -118.411541 55 1569ft 7kts
08-Nov-18 08:37 33.407401 -118.411659 248 1569ft 8kts
08-Nov-18 08:38 33.399750 -118.424849 230 1942ft 103kts
08-Nov-18 08:39 33.382126 -118.455565 232 3126ft 115kts
08-Nov-18 08:40 33.364483 -118.445163 72 3981ft 118kts
08-Nov-18 08:41 33.370192 -118.406244 88 4858ft 117kts
08-Nov-18 08:42 33.366845 -118.361655 94 4984ft 147kts
08-Nov-18 08:43 33.360966 -118.312403 95 4982ft 151kts
08-Nov-18 08:44 33.354514 -118.262469 95 4980ft 152kts
08-Nov-18 08:45 33.347944 -118.212326 95 5006ft 153kts
08-Nov-18 08:46 33.341288 -118.161775 95 5005ft 155kts
08-Nov-18 08:47 33.334530 -118.110662 95 5004ft 156kts
08-Nov-18 08:48 33.327706 -118.059245 95 5003ft 156kts
08-Nov-18 08:49 33.320865 -118.007881 95 5001ft 157kts
08-Nov-18 08:50 33.313971 -117.956275 95 4998ft 157kts
08-Nov-18 08:51 33.307008 -117.904330 95 4995ft 158kts
08-Nov-18 08:52 33.300017 -117.852314 95 4992ft 159kts
08-Nov-18 08:53 33.292999 -117.800296 95 4991ft 159kts
08-Nov-18 08:54 33.285900 -117.747954 95 4991ft 159kts
08-Nov-18 08:55 33.278121 -117.696157 95 4991ft 159kts
08-Nov-18 08:56 33.270290 -117.644257 95 4991ft 159kts
08-Nov-18 08:57 33.262440 -117.592402 95 5009ft 158kts
08-Nov-18 08:58 33.255596 -117.539904 94 4981ft 160kts
08-Nov-18 08:59 33.249192 -117.487274 94 4981ft 161kts
08-Nov-18 09:00 33.242524 -117.434052 100 4977ft 163kts
08-Nov-18 09:01 33.207872 -117.404455 157 4979ft 169kts
08-Nov-18 09:02 33.163692 -117.385264 159 4977ft 169kts
08-Nov-18 09:03 33.119327 -117.366586 159 4974ft 169kts
08-Nov-18 09:04 33.075189 -117.348046 160 4973ft 168kts
08-Nov-18 09:05 33.031068 -117.329534 160 4973ft 168kts
08-Nov-18 09:06 32.986884 -117.311010 159 4973ft 168kts
08-Nov-18 09:07 32.942677 -117.292498 159 4973ft 168kts
08-Nov-18 09:08 32.899039 -117.274238 158 4985ft 168kts
08-Nov-18 09:09 32.855416 -117.255997 157 4985ft 167kts
08-Nov-18 09:10 32.811892 -117.237808 157 4986ft 165kts
08-Nov-18 09:11 32.770163 -117.216946 129 4985ft 159kts
08-Nov-18 09:12 32.757544 -117.168476 101 4988ft 155kts
08-Nov-18 09:13 32.746914 -117.118608 100 4990ft 156kts
08-Nov-18 09:14 32.736509 -117.068526 100 4991ft 157kts
08-Nov-18 09:15 32.725966 -117.017815 100 4992ft 159kts
08-Nov-18 09:16 32.715481 -116.966640 100 4993ft 161kts
08-Nov-18 09:17 32.704843 -116.914732 108 4988ft 163kts
08-Nov-18 09:18 32.668459 -116.904407 225 4985ft 148kts
08-Nov-18 09:19 32.672030 -116.949013 298 4286ft 151kts
08-Nov-18 09:20 32.686003 -116.995084 288 3710ft 148kts
08-Nov-18 09:21 32.697055 -117.039673 288 3374ft 141kts
08-Nov-18 09:22 32.706539 -117.078637 287 2698ft 110kts
08-Nov-18 09:23 32.714004 -117.109531 286 2060ft 96kts
08-Nov-18 09:24 32.720221 -117.136027 289 1089ft 76kts
08-Nov-18 09:25 32.726183 -117.159800 288 457ft 73kts
08-Nov-18 09:26 32.731953 -117.183111 288 21ft 68kts
08-Nov-18 09:27 32.734708 -117.190694 36 19ft 0kts
08-Nov-18 09:28 32.734490 -117.188770 105 19ft 13kts
08-Nov-18 09:29 32.733040 -117.182815 105 18ft 21kts
08-Nov-18 09:30 32.732620 -117.177147 115 21ft 6kts
08-Nov-18 09:31 32.732594 -117.177106 155 21ft 0kts
08-Nov-18 09:32 32.732594 -117.177106 155 21ft 0kts

Navigation Log

Ident Type
Flight plan parsing failed, navigation log unavailable